createdAt,value
2023-03-28T00:02:01.579Z,5.10
2023-03-28T00:04:50.629Z,4.80
2023-03-28T00:07:39.707Z,6.27
2023-03-28T00:10:29.901Z,4.90
2023-03-28T00:13:21.309Z,4.60
2023-03-28T00:16:12.770Z,5.10
2023-03-28T00:19:02.572Z,4.70
2023-03-28T00:21:51.587Z,5.53
2023-03-28T00:24:40.129Z,4.80
2023-03-28T00:27:29.734Z,5.63
2023-03-28T00:30:19.570Z,5.43
2023-03-28T00:33:08.875Z,5.70
2023-03-28T00:35:57.806Z,5.00
2023-03-28T00:38:46.545Z,6.17
2023-03-28T00:41:39.861Z,5.60
2023-03-28T00:44:44.789Z,5.13
2023-03-28T00:47:40.680Z,5.20
2023-03-28T00:50:30.943Z,5.90
2023-03-28T00:53:21.030Z,5.27
2023-03-28T00:56:11.567Z,5.27
2023-03-28T00:59:09.031Z,6.07
2023-03-28T01:01:57.679Z,6.00
2023-03-28T01:04:52.188Z,7.10
2023-03-28T01:07:45.346Z,6.50
2023-03-28T01:10:34.590Z,6.40
2023-03-28T01:13:26.603Z,7.37
2023-03-28T01:16:15.837Z,5.93
2023-03-28T01:19:05.272Z,5.50
2023-03-28T01:22:13.208Z,6.33
2023-03-28T01:25:28.356Z,5.23
2023-03-28T01:28:28.371Z,5.63
2023-03-28T01:31:43.481Z,6.20
2023-03-28T01:34:44.737Z,6.17
2023-03-28T01:37:43.207Z,5.67
2023-03-28T01:40:38.140Z,5.50
2023-03-28T01:43:33.189Z,6.07
2023-03-28T01:46:24.732Z,6.10
2023-03-28T01:49:18.777Z,6.20
2023-03-28T01:52:13.478Z,5.00
2023-03-28T01:55:08.429Z,5.33
2023-03-28T01:57:59.662Z,5.00
2023-03-28T02:00:54.584Z,5.23
2023-03-28T02:03:47.816Z,5.93
2023-03-28T02:06:38.527Z,5.03
2023-03-28T02:09:28.160Z,5.93
2023-03-28T02:12:21.489Z,4.80
2023-03-28T02:15:12.503Z,6.20
2023-03-28T02:18:04.518Z,5.10
2023-03-28T02:20:55.436Z,6.03
2023-03-28T02:23:47.285Z,5.20
2023-03-28T02:26:35.823Z,5.30
2023-03-28T02:29:28.437Z,5.20
2023-03-28T02:32:17.504Z,5.80
2023-03-28T02:35:09.113Z,4.80
2023-03-28T02:38:04.528Z,6.00
2023-03-28T02:40:56.550Z,5.43
2023-03-28T02:44:04.137Z,4.90
2023-03-28T02:47:00.072Z,4.93
2023-03-28T02:49:56.534Z,6.07
2023-03-28T02:52:51.889Z,5.50
2023-03-28T02:55:44.613Z,5.37
2023-03-28T02:58:37.566Z,5.37
2023-03-28T03:01:29.033Z,5.30
2023-03-28T03:04:19.102Z,5.13
2023-03-28T03:07:09.056Z,5.67
2023-03-28T03:09:57.476Z,6.17
2023-03-28T03:12:46.432Z,5.03
2023-03-28T03:15:35.570Z,5.90
2023-03-28T03:18:24.435Z,5.90
2023-03-28T03:21:14.461Z,4.93
2023-03-28T03:24:03.055Z,5.27
2023-03-28T03:26:51.589Z,4.80
2023-03-28T03:29:40.011Z,4.93
2023-03-28T03:32:28.721Z,5.13
2023-03-28T03:35:17.278Z,5.40
2023-03-28T03:38:07.228Z,5.40
2023-03-28T03:40:55.748Z,5.27
2023-03-28T03:43:47.080Z,5.53
2023-03-28T03:46:35.764Z,5.90
2023-03-28T03:49:24.332Z,5.20
2023-03-28T03:52:12.799Z,6.40
2023-03-28T03:55:02.924Z,6.60
2023-03-28T03:57:51.392Z,5.07
2023-03-28T04:00:39.942Z,6.07
2023-03-28T04:03:28.941Z,5.40
2023-03-28T04:06:17.477Z,5.50
2023-03-28T04:09:06.047Z,5.00
2023-03-28T04:11:56.098Z,5.80
2023-03-28T04:14:44.574Z,4.73
2023-03-28T04:17:34.997Z,5.50
2023-03-28T04:20:24.457Z,6.13
2023-03-28T04:23:12.946Z,6.33
2023-03-28T04:26:02.562Z,6.33
2023-03-28T04:28:52.802Z,6.03
2023-03-28T04:31:41.306Z,5.70
2023-03-28T04:34:30.800Z,6.70
2023-03-28T04:37:19.995Z,6.67
2023-03-28T04:40:11.326Z,6.23
2023-03-28T04:42:59.795Z,4.93
2023-03-28T04:45:49.652Z,6.47
2023-03-28T04:48:38.126Z,6.67
2023-03-28T04:51:28.534Z,5.97
2023-03-28T04:54:17.331Z,7.13
2023-03-28T04:57:05.901Z,5.87
2023-03-28T04:59:54.436Z,6.40
2023-03-28T05:02:44.359Z,5.77
2023-03-28T05:05:33.152Z,6.23
2023-03-28T05:08:23.567Z,7.23
2023-03-28T05:11:12.345Z,6.80
2023-03-28T05:14:01.136Z,7.40
2023-03-28T05:16:49.654Z,6.67
2023-03-28T05:19:39.486Z,6.73
2023-03-28T05:22:27.966Z,6.20
2023-03-28T05:25:16.560Z,7.37
2023-03-28T05:28:05.405Z,6.17
2023-03-28T05:30:54.348Z,6.80
2023-03-28T05:33:42.787Z,7.47
2023-03-28T05:36:32.594Z,8.47
2023-03-28T05:39:21.733Z,7.70
2023-03-28T05:42:10.370Z,8.03
2023-03-28T05:44:59.122Z,6.80
2023-03-28T05:47:47.727Z,6.80
2023-03-28T05:50:36.436Z,6.93
2023-03-28T05:53:26.320Z,6.90
2023-03-28T05:56:14.871Z,7.47
2023-03-28T05:59:03.437Z,6.40
2023-03-28T06:01:52.783Z,7.27
2023-03-28T06:04:41.474Z,8.47
2023-03-28T06:07:41.504Z,6.43
2023-03-28T06:10:32.694Z,7.57
2023-03-28T06:13:21.460Z,7.07
2023-03-28T06:16:10.896Z,6.40
2023-03-28T06:19:14.316Z,7.17
2023-03-28T06:22:03.838Z,6.87
2023-03-28T06:24:52.368Z,6.23
2023-03-28T06:27:42.253Z,6.60
2023-03-28T06:30:30.833Z,6.80
2023-03-28T06:33:19.318Z,6.73
2023-03-28T06:36:08.507Z,7.70
2023-03-28T06:38:58.433Z,7.07
2023-03-28T06:41:46.969Z,7.77
2023-03-28T06:44:36.826Z,7.67
2023-03-28T06:47:25.463Z,6.60
2023-03-28T06:50:13.914Z,7.63
2023-03-28T06:53:02.482Z,6.93
2023-03-28T06:55:51.266Z,6.87
2023-03-28T06:58:40.198Z,8.53
2023-03-28T07:01:30.096Z,6.47
2023-03-28T07:04:18.686Z,6.43
2023-03-28T07:07:09.242Z,6.50
2023-03-28T07:09:57.718Z,6.90
2023-03-28T07:12:46.262Z,6.10
2023-03-28T07:15:34.770Z,7.10
2023-03-28T07:18:24.581Z,6.33
2023-03-28T07:21:14.697Z,5.60
2023-03-28T07:24:03.219Z,5.90
2023-03-28T07:26:54.817Z,5.37
2023-03-28T07:29:49.938Z,5.27
2023-03-28T07:32:49.970Z,6.10
2023-03-28T07:35:42.909Z,6.00
2023-03-28T07:38:31.383Z,5.73
2023-03-28T07:41:22.377Z,5.90
2023-03-28T07:44:10.972Z,6.13
2023-03-28T07:46:59.990Z,6.00
2023-03-28T07:49:48.572Z,6.60
2023-03-28T07:52:44.157Z,6.30
2023-03-28T07:55:39.325Z,5.80
2023-03-28T07:58:36.768Z,6.07
2023-03-28T08:01:26.361Z,6.37
2023-03-28T08:04:15.155Z,6.07
2023-03-28T08:07:03.724Z,5.20
2023-03-28T08:09:54.846Z,5.63
2023-03-28T08:12:44.805Z,4.33
2023-03-28T08:15:33.404Z,4.60
2023-03-28T08:18:21.972Z,5.50
2023-03-28T08:21:10.766Z,4.47
2023-03-28T08:23:59.404Z,5.03
2023-03-28T08:26:49.311Z,4.10
2023-03-28T08:29:37.887Z,4.20
2023-03-28T08:32:26.866Z,3.60
2023-03-28T08:35:15.654Z,4.20
2023-03-28T08:38:04.159Z,4.30
2023-03-28T08:41:01.355Z,4.60
2023-03-28T08:44:05.304Z,3.70
2023-03-28T08:46:56.941Z,4.07
2023-03-28T08:49:48.124Z,4.23
2023-03-28T08:52:37.027Z,4.30
2023-03-28T08:55:31.868Z,3.17
2023-03-28T08:58:23.252Z,4.27
2023-03-28T09:01:13.229Z,3.93
2023-03-28T09:04:02.098Z,3.90
2023-03-28T09:06:55.335Z,3.20
2023-03-28T09:09:51.273Z,3.10
2023-03-28T09:12:49.615Z,2.60
2023-03-28T09:15:46.816Z,2.80
2023-03-28T09:19:00.488Z,3.90
2023-03-28T09:22:12.402Z,2.77
2023-03-28T09:25:20.381Z,2.80
2023-03-28T09:28:17.833Z,2.53
2023-03-28T09:31:09.130Z,3.27
2023-03-28T09:34:00.352Z,3.27
2023-03-28T09:36:50.940Z,3.80
2023-03-28T09:39:43.903Z,3.67
2023-03-28T09:42:36.850Z,2.80
2023-03-28T09:45:33.899Z,3.60
2023-03-28T09:48:24.505Z,3.40
2023-03-28T09:51:17.714Z,2.20
2023-03-28T09:54:07.527Z,2.80
2023-03-28T09:57:00.026Z,2.93
2023-03-28T09:59:48.606Z,2.70
2023-03-28T10:02:37.967Z,3.07
2023-03-28T10:05:32.797Z,2.70
2023-03-28T10:08:29.258Z,2.80
2023-03-28T10:11:18.753Z,3.20
2023-03-28T10:14:11.200Z,3.57
2023-03-28T10:17:02.718Z,3.63
2023-03-28T10:19:51.498Z,3.63
2023-03-28T10:22:40.508Z,3.07
2023-03-28T10:25:36.646Z,3.20
2023-03-28T10:28:30.770Z,3.33
2023-03-28T10:31:28.856Z,3.00
2023-03-28T10:34:26.858Z,2.90
2023-03-28T10:37:26.344Z,2.10
2023-03-28T10:40:29.970Z,2.40
2023-03-28T10:43:20.091Z,2.50
2023-03-28T10:46:12.467Z,2.03
2023-03-28T10:49:04.427Z,3.03
2023-03-28T10:51:53.005Z,3.43
2023-03-28T10:54:50.806Z,2.67
2023-03-28T10:57:41.941Z,2.90
2023-03-28T11:00:35.844Z,2.93
2023-03-28T11:03:43.355Z,2.40
2023-03-28T11:06:37.186Z,3.27
2023-03-28T11:09:31.711Z,3.03
2023-03-28T11:12:51.328Z,2.87
2023-03-28T11:15:52.787Z,3.50
2023-03-28T11:18:52.660Z,3.33
2023-03-28T11:21:45.287Z,3.13
2023-03-28T11:24:40.069Z,3.10
2023-03-28T11:27:31.999Z,2.70
2023-03-28T11:30:22.544Z,3.37
2023-03-28T11:33:16.751Z,2.83
2023-03-28T11:36:08.462Z,2.63
2023-03-28T11:39:00.506Z,3.10
2023-03-28T11:41:49.812Z,3.40
2023-03-28T11:44:40.298Z,3.40
2023-03-28T11:47:31.505Z,3.47
2023-03-28T11:50:24.775Z,2.70
2023-03-28T11:53:16.541Z,3.10
2023-03-28T11:56:12.392Z,2.50
2023-03-28T11:59:04.559Z,3.03
2023-03-28T12:01:57.851Z,3.10
2023-03-28T12:04:51.177Z,2.90
2023-03-28T12:07:44.726Z,3.00
2023-03-28T12:10:36.350Z,2.93
2023-03-28T12:13:31.660Z,2.83
2023-03-28T12:16:24.061Z,2.90
2023-03-28T12:19:14.879Z,2.90
2023-03-28T12:22:09.083Z,3.43
2023-03-28T12:25:03.460Z,3.10
2023-03-28T12:27:57.715Z,2.83
2023-03-28T12:30:51.742Z,2.80
2023-03-28T12:33:53.763Z,3.17
2023-03-28T12:36:45.134Z,3.13
2023-03-28T12:39:36.457Z,3.10
2023-03-28T12:42:27.864Z,3.43
2023-03-28T12:45:18.770Z,2.73
2023-03-28T12:48:10.975Z,2.90
2023-03-28T12:51:01.608Z,2.97
2023-03-28T12:54:02.043Z,2.77
2023-03-28T12:57:01.080Z,3.20
2023-03-28T13:00:06.292Z,3.27
2023-03-28T13:03:01.827Z,3.40
2023-03-28T13:05:58.301Z,2.90
2023-03-28T13:09:04.973Z,3.03
2023-03-28T13:11:57.588Z,2.83
2023-03-28T13:15:00.292Z,3.07
2023-03-28T13:17:49.900Z,2.63
2023-03-28T13:20:46.993Z,2.70
2023-03-28T13:23:47.236Z,3.27
2023-03-28T13:26:54.848Z,3.03
2023-03-28T13:29:46.177Z,2.70
2023-03-28T13:32:38.824Z,2.37
2023-03-28T13:35:40.301Z,2.47
2023-03-28T13:38:34.944Z,3.17
2023-03-28T13:41:39.808Z,2.80
2023-03-28T13:44:40.806Z,2.10
2023-03-28T13:47:33.954Z,2.37
2023-03-28T13:50:27.281Z,2.40
2023-03-28T13:53:15.757Z,2.50
2023-03-28T13:56:09.042Z,3.03
2023-03-28T13:58:58.642Z,2.33
2023-03-28T14:01:49.595Z,2.40
2023-03-28T14:04:38.881Z,2.33
2023-03-28T14:07:29.446Z,2.50
2023-03-28T14:10:22.558Z,3.00
2023-03-28T14:13:13.392Z,2.37
2023-03-28T14:16:01.985Z,2.63
2023-03-28T14:18:51.447Z,2.97
2023-03-28T14:21:41.239Z,2.40
2023-03-28T14:24:31.137Z,2.33
2023-03-28T14:27:29.429Z,2.40
2023-03-28T14:30:20.524Z,2.33
2023-03-28T14:33:18.525Z,2.30
2023-03-28T14:36:10.834Z,2.00
2023-03-28T14:39:06.706Z,2.50
2023-03-28T14:41:57.452Z,2.70
2023-03-28T14:44:46.952Z,2.57
2023-03-28T14:47:35.447Z,2.13
2023-03-28T14:50:25.420Z,2.83
2023-03-28T14:53:19.699Z,2.57
2023-03-28T14:56:11.060Z,2.93
2023-03-28T14:59:02.349Z,2.07
2023-03-28T15:01:51.926Z,2.43
2023-03-28T15:04:40.570Z,2.60
2023-03-28T15:07:29.895Z,2.27
2023-03-28T15:10:24.406Z,2.20
2023-03-28T15:13:15.312Z,3.17
2023-03-28T15:16:07.900Z,2.93
2023-03-28T15:18:58.836Z,1.80
2023-03-28T15:21:52.899Z,2.33
2023-03-28T15:24:42.257Z,1.80
2023-03-28T15:27:32.786Z,2.20
2023-03-28T15:30:21.587Z,1.90
2023-03-28T15:33:17.531Z,2.27
2023-03-28T15:36:07.303Z,1.90
2023-03-28T15:39:01.330Z,1.97
2023-03-28T15:41:50.613Z,1.90
2023-03-28T15:44:39.577Z,2.40
2023-03-28T15:47:29.982Z,2.07
2023-03-28T15:50:26.403Z,2.00
2023-03-28T15:53:16.110Z,2.10
2023-03-28T15:56:08.949Z,2.00
2023-03-28T15:59:02.546Z,2.00
2023-03-28T16:01:51.321Z,2.33
2023-03-28T16:04:39.937Z,2.10
2023-03-28T16:07:34.013Z,2.20
2023-03-28T16:10:24.240Z,2.07
2023-03-28T16:13:14.876Z,2.43
2023-03-28T16:16:05.738Z,2.03
2023-03-28T16:18:54.511Z,2.37
2023-03-28T16:21:43.239Z,1.80
2023-03-28T16:24:34.605Z,2.23
2023-03-28T16:27:23.195Z,2.30
2023-03-28T16:30:16.193Z,2.00
2023-03-28T16:33:05.974Z,2.23
2023-03-28T16:35:54.908Z,2.93
2023-03-28T16:38:43.438Z,2.40
2023-03-28T16:41:33.397Z,2.10
2023-03-28T16:44:22.174Z,2.00
2023-03-28T16:47:10.765Z,2.40
2023-03-28T16:49:59.247Z,2.23
2023-03-28T16:52:47.760Z,2.30
2023-03-28T16:55:36.342Z,2.70
2023-03-28T16:58:28.361Z,1.80
2023-03-28T17:01:19.421Z,2.03
2023-03-28T17:04:08.026Z,2.47
2023-03-28T17:06:56.797Z,2.07
2023-03-28T17:09:48.421Z,1.90
2023-03-28T17:12:37.050Z,2.23
2023-03-28T17:15:27.102Z,2.27
2023-03-28T17:18:16.146Z,2.00
2023-03-28T17:21:06.332Z,3.30
2023-03-28T17:23:55.477Z,3.83
2023-03-28T17:26:43.994Z,3.97
2023-03-28T17:29:32.489Z,4.00
2023-03-28T17:32:22.546Z,3.37
2023-03-28T17:35:12.146Z,3.70
2023-03-28T17:38:00.878Z,3.50
2023-03-28T17:40:50.037Z,3.63
2023-03-28T17:43:40.552Z,4.47
2023-03-28T17:46:29.145Z,3.90
2023-03-28T17:49:19.715Z,2.87
2023-03-28T17:52:10.168Z,3.00
2023-03-28T17:54:59.156Z,3.27
2023-03-28T17:57:47.776Z,2.70
2023-03-28T18:00:36.263Z,2.73
2023-03-28T18:03:24.822Z,3.30
2023-03-28T18:06:15.136Z,3.90
2023-03-28T18:09:04.208Z,3.80
2023-03-28T18:11:52.667Z,4.70
2023-03-28T18:14:41.284Z,4.43
2023-03-28T18:17:30.105Z,4.50
2023-03-28T18:20:18.816Z,4.33
2023-03-28T18:23:08.660Z,7.20
2023-03-28T18:25:57.090Z,6.13
2023-03-28T18:28:45.686Z,5.20
2023-03-28T18:31:36.768Z,7.20
2023-03-28T18:34:25.840Z,7.30
2023-03-28T18:37:14.347Z,5.30
2023-03-28T18:40:07.213Z,5.07
2023-03-28T18:42:55.649Z,5.03
2023-03-28T18:45:44.177Z,5.37
2023-03-28T18:48:33.451Z,4.60
2023-03-28T18:51:22.035Z,4.23
2023-03-28T18:54:11.144Z,3.87
2023-03-28T18:57:01.567Z,3.80
2023-03-28T18:59:52.633Z,4.10
2023-03-28T19:02:41.447Z,4.30
2023-03-28T19:05:30.063Z,4.77
2023-03-28T19:08:18.597Z,7.07
2023-03-28T19:11:09.424Z,6.30
2023-03-28T19:13:59.317Z,5.77
2023-03-28T19:16:47.875Z,6.03
2023-03-28T19:19:37.786Z,5.40
2023-03-28T19:22:26.247Z,5.83
2023-03-28T19:25:16.145Z,6.70
2023-03-28T19:28:04.714Z,6.27
2023-03-28T19:30:59.208Z,5.93
2023-03-28T19:33:48.671Z,5.50
2023-03-28T19:36:37.154Z,6.10
2023-03-28T19:39:25.628Z,6.60
2023-03-28T19:42:17.980Z,7.90
2023-03-28T19:45:08.004Z,5.93
2023-03-28T19:47:59.893Z,6.47
2023-03-28T19:50:49.533Z,6.10
2023-03-28T19:53:38.078Z,6.80
2023-03-28T19:56:27.006Z,6.90
2023-03-28T19:59:15.929Z,7.40
2023-03-28T20:02:04.494Z,6.20
2023-03-28T20:04:54.502Z,6.87
2023-03-28T20:07:43.177Z,5.80
2023-03-28T20:10:31.998Z,5.50
2023-03-28T20:13:20.753Z,5.30
2023-03-28T20:16:10.875Z,8.43
2023-03-28T20:19:00.364Z,6.07
2023-03-28T20:21:50.259Z,7.87
2023-03-28T20:24:38.691Z,8.97
2023-03-28T20:27:27.260Z,9.10
2023-03-28T20:30:15.935Z,8.17
2023-03-28T20:33:04.587Z,6.77
2023-03-28T20:35:53.609Z,6.20
2023-03-28T20:38:43.573Z,5.70
2023-03-28T20:41:32.079Z,5.80
2023-03-28T20:44:20.807Z,6.87
2023-03-28T20:47:10.566Z,6.20
2023-03-28T20:50:05.549Z,6.90
2023-03-28T20:52:54.371Z,12.10
2023-03-28T20:55:44.278Z,6.60
2023-03-28T20:58:33.702Z,5.60
2023-03-28T21:01:26.196Z,5.20
2023-03-28T21:04:14.929Z,5.70
2023-03-28T21:07:03.588Z,5.83
2023-03-28T21:09:52.115Z,5.80
2023-03-28T21:12:43.680Z,5.60
2023-03-28T21:15:34.564Z,5.77
2023-03-28T21:18:23.126Z,5.93
2023-03-28T21:21:12.825Z,6.67
2023-03-28T21:24:01.704Z,7.17
2023-03-28T21:26:50.177Z,6.20
2023-03-28T21:29:40.034Z,6.27
2023-03-28T21:32:28.818Z,5.10
2023-03-28T21:35:17.316Z,6.93
2023-03-28T21:38:06.240Z,5.93
2023-03-28T21:40:54.773Z,7.50
2023-03-28T21:43:43.475Z,5.80
2023-03-28T21:46:33.597Z,5.83
2023-03-28T21:49:23.225Z,6.10
2023-03-28T21:52:11.673Z,6.10
2023-03-28T21:55:00.405Z,5.53
2023-03-28T21:57:48.817Z,5.80
2023-03-28T22:00:37.453Z,6.10
2023-03-28T22:03:27.645Z,4.83
2023-03-28T22:06:17.569Z,5.20
2023-03-28T22:09:06.286Z,4.90
2023-03-28T22:11:55.888Z,4.50
2023-03-28T22:14:44.674Z,3.90
2023-03-28T22:17:36.562Z,4.00
2023-03-28T22:20:28.457Z,3.73
2023-03-28T22:23:17.091Z,2.77
2023-03-28T22:26:07.037Z,2.67
2023-03-28T22:28:57.565Z,3.17
2023-03-28T22:31:46.109Z,2.83
2023-03-28T22:34:36.268Z,3.17
2023-03-28T22:37:26.505Z,3.30
2023-03-28T22:40:15.196Z,3.00
2023-03-28T22:43:04.704Z,3.00
2023-03-28T22:45:53.292Z,2.93
2023-03-28T22:48:42.019Z,3.17
2023-03-28T22:51:30.505Z,3.67
2023-03-28T22:54:22.801Z,3.13
2023-03-28T22:57:11.522Z,3.40
2023-03-28T23:00:01.641Z,3.50
2023-03-28T23:02:50.443Z,3.77
2023-03-28T23:05:38.968Z,3.60
2023-03-28T23:08:27.425Z,3.60
2023-03-28T23:11:17.301Z,3.63
2023-03-28T23:14:05.767Z,3.80
2023-03-28T23:16:54.278Z,3.83
2023-03-28T23:19:43.602Z,3.03
2023-03-28T23:22:32.056Z,3.67
2023-03-28T23:25:21.611Z,4.10
2023-03-28T23:28:11.381Z,4.07
2023-03-28T23:31:00.043Z,3.50
2023-03-28T23:33:48.787Z,3.10
2023-03-28T23:36:41.100Z,3.17
2023-03-28T23:39:29.653Z,3.10
2023-03-28T23:42:18.101Z,3.83
2023-03-28T23:45:08.907Z,3.33
2023-03-28T23:47:57.362Z,3.40
2023-03-28T23:50:45.867Z,4.00
2023-03-28T23:53:34.353Z,3.30
2023-03-28T23:56:23.892Z,3.73
2023-03-28T23:59:12.452Z,4.00
